Latest Weather Observations for Hindmarsh Island

IDS60901

Issued at 6:21 am CDT Thursday 28 January 2021 (issued every 10 minutes, with the page automatically refreshed every 10 minutes)

About weather observations | Map of Adelaide area stations | Latest observations for Adelaide area | Other Formats
Station Details ID: 023894 Name: HINDMARSH ISLAND AWS Lat: -35.52 Lon: 138.82 Height: 11.0 m
Data from the previous 72 hours. | See also: Recent months at Hindmarsh Island
Date/Time
CDT
Temp
°C
App
Temp
°C
Dew
Point
°C
Rel
Hum
%
Delta-T
°C
Wind Press
QNH
hPa
Press
MSL
hPa
Rain since
9am
mm
Dir  Spd
km/h
Gust
km/h
Spd
kts
Gust
kts
28/06:00am 16.9 16.0 11.2 69 3.1 SE 7 9 4 5 1012.1 1012.0 0.0
28/05:30am 16.7 15.8 11.4 71 2.9 SSE 7 9 4 5 1011.9 1011.8 0.0
28/05:00am 15.6 13.6 10.2 70 2.8 ESE 11 13 6 7 1011.6 1011.5 0.0
28/04:30am 16.5 14.6 10.6 68 3.1 ESE 11 13 6 7 1011.7 1011.6 0.0
28/04:00am 16.5 14.3 10.8 69 3.0 E 13 15 7 8 1011.8 1011.7 0.0
28/03:30am 17.5 17.9 12.6 73 2.7 NE 2 6 1 3 1011.7 1011.6 0.0
28/03:00am 17.9 18.9 13.2 74 2.6 CALM 0 2 0 1 1011.6 1011.5 0.0
28/02:30am 18.0 17.5 13.7 76 2.4 SE 9 15 5 8 1011.7 1011.6 0.0
28/02:00am 18.3 17.0 13.8 75 2.6 SE 13 17 7 9 1012.0 1011.9 0.0
28/01:30am 18.4 17.2 13.9 75 2.6 SSE 13 17 7 9 1012.2 1012.1 0.0
28/01:00am 18.3 17.2 14.2 77 2.4 S 13 15 7 8 1012.5 1012.4 0.0
28/12:30am 18.2 16.3 14.1 77 2.4 S 17 19 9 10 1012.7 1012.6 0.0
28/12:00am 18.3 16.6 14.6 79 2.1 S 17 20 9 11 1012.7 1012.6 0.0
 
Date/Time
CDT
Temp
°C
App
Temp
°C
Dew
Point
°C
Rel
Hum
%
Delta-T
°C
Wind Press
QNH
hPa
Press
MSL
hPa
Rain since
9am
mm
Dir  Spd
km/h
Gust
km/h
Spd
kts
Gust
kts
27/11:30pm 18.1 16.3 14.4 79 2.1 S 17 20 9 11 1013.3 1013.2 0.0
27/11:00pm 18.1 16.3 14.4 79 2.1 SSW 17 20 9 11 1013.5 1013.4 0.0
27/10:30pm 18.2 16.3 14.3 78 2.2 S 17 20 9 11 1013.7 1013.6 0.0
27/10:00pm 18.0 15.6 13.9 77 2.3 SSE 19 20 10 11 1013.2 1013.1 0.0
27/09:30pm 18.0 15.1 13.9 77 2.3 S 22 28 12 15 1013.3 1013.2 0.0
27/09:00pm 18.1 14.7 13.8 76 2.5 S 24 30 13 16 1013.0 1012.9 0.0
27/08:30pm 18.3 14.2 13.8 75 2.6 S 28 33 15 18 1012.7 1012.6 0.0
27/08:00pm 18.7 14.9 13.6 72 2.9 S 26 30 14 16 1012.7 1012.6 0.0
27/07:30pm 19.1 15.6 13.5 70 3.2 S 24 28 13 15 1012.5 1012.4 0.0
27/07:00pm 18.6 14.7 12.1 66 3.6 S 24 28 13 15 1012.5 1012.4 0.0
27/06:30pm 19.2 14.7 12.5 65 3.8 S 28 33 15 18 1012.1 1012.0 0.0
27/06:00pm 19.7 15.8 12.0 61 4.3 S 24 30 13 16 1012.5 1012.4 0.0
27/05:30pm 19.9 15.3 12.2 61 4.3 S 28 32 15 17 1012.5 1012.4 0.0
27/05:00pm 20.5 16.2 10.6 53 5.4 S 24 30 13 16 1012.6 1012.5 0.0
27/04:30pm 20.5 16.0 10.0 51 5.7 S 24 30 13 16 1012.7 1012.6 0.0
27/04:00pm 20.3 15.8 10.1 52 5.5 SSE 24 28 13 15 1012.5 1012.4 0.0
27/03:30pm 19.9 14.4 9.2 50 5.7 SSE 28 33 15 18 1012.6 1012.5 0.0
27/03:00pm 19.7 14.2 9.3 51 5.5 SSE 28 33 15 18 1012.9 1012.8 0.0
27/02:30pm 20.3 15.3 9.5 50 5.8 SSE 26 32 14 17 1013.3 1013.2 0.0
27/02:00pm 19.6 14.8 8.9 50 5.6 SSE 24 30 13 16 1013.6 1013.5 0.0
27/01:30pm 19.4 14.3 7.8 47 5.9 SSE 24 30 13 16 1014.2 1014.1 0.0
27/01:00pm 19.2 14.1 9.1 52 5.3 SSE 26 30 14 16 1014.2 1014.1 0.0
27/12:30pm 18.9 14.0 8.3 50 5.5 SSE 24 28 13 15 1014.5 1014.4 0.0
27/12:00pm 18.7 13.9 8.7 52 5.2 SSE 24 30 13 16 1014.2 1014.1 0.0
27/11:30am 18.5 13.5 7.9 50 5.4 SE 24 32 13 17 1014.4 1014.3 0.0
27/11:00am 18.1 13.3 8.9 55 4.8 SSE 24 30 13 16 1015.0 1014.9 0.0
27/10:30am 17.6 13.5 8.7 56 4.6 SE 20 28 11 15 1015.1 1015.0 0.0
27/10:00am 17.4 12.6 7.2 51 5.1 ESE 22 30 12 16 1015.2 1015.1 0.0
27/09:30am 16.8 12.1 7.7 55 4.6 ESE 22 32 12 17 1015.2 1015.1 0.0
27/09:00am 15.7 10.1 7.2 57 4.2 E 26 35 14 19 1015.2 1015.1 0.0
27/08:30am 15.2 8.9 7.5 60 3.8 ESE 30 37 16 20 1015.1 1015.0 0.0
27/08:00am 14.5 8.6 7.3 62 3.5 ESE 28 35 15 19 1014.7 1014.6 0.0
27/07:30am 13.9 8.7 7.2 64 3.3 E 24 32 13 17 1014.7 1014.6 0.0
27/07:00am 13.0 8.6 7.5 69 2.7 E 20 28 11 15 1014.5 1014.4 0.0
27/06:30am 13.0 7.0 7.2 68 2.8 E 28 37 15 20 1014.2 1014.1 0.0
27/06:00am 13.4 8.3 7.6 68 2.8 ESE 24 33 13 18 1013.5 1013.4 0.0
27/05:30am 14.3 7.5 7.8 65 3.2 ESE 33 41 18 22 1013.2 1013.1 0.0
27/05:00am 14.4 8.3 8.1 66 3.1 ESE 30 39 16 21 1012.8 1012.7 0.0
27/04:30am 14.6 9.0 8.8 68 2.9 ESE 28 35 15 19 1012.7 1012.6 0.0
27/04:00am 14.9 9.4 9.3 69 2.9 ESE 28 35 15 19 1012.4 1012.3 0.0
27/03:30am 15.6 9.1 10.4 71 2.7 ESE 35 44 19 24 1012.1 1012.0 0.0
27/03:00am 16.1 9.9 11.3 73 2.6 SE 35 43 19 23 1012.1 1012.0 0.0
27/02:30am 16.4 9.9 11.6 73 2.6 SE 37 43 20 23 1012.0 1011.9 0.0
27/02:00am 16.6 10.5 11.7 73 2.7 SE 35 46 19 25 1011.8 1011.7 0.0
27/01:30am 16.9 10.5 12.0 73 2.7 SE 37 43 20 23 1011.9 1011.8 0.0
27/01:00am 17.1 10.5 12.6 75 2.5 SE 39 48 21 26 1011.6 1011.5 0.0
27/12:30am 16.9 9.6 11.6 71 2.9 SSE 41 48 22 26 1011.2 1011.1 0.0
27/12:00am 17.0 10.3 12.3 74 2.6 SSE 39 48 21 26 1011.3 1011.2 0.0
 
Date/Time
CDT
Temp
°C
App
Temp
°C
Dew
Point
°C
Rel
Hum
%
Delta-T
°C
Wind Press
QNH
hPa
Press
MSL
hPa
Rain since
9am
mm
Dir  Spd
km/h
Gust
km/h
Spd
kts
Gust
kts
26/11:30pm 17.0 10.3 12.3 74 2.6 SSE 39 50 21 27 1011.2 1011.1 0.0
26/11:00pm 17.2 10.6 12.7 75 2.5 SSE 39 46 21 25 1011.4 1011.3 0.0
26/10:30pm 17.1 10.3 12.0 72 2.8 SSE 39 48 21 26 1011.3 1011.2 0.0
26/10:00pm 17.3 10.9 13.2 77 2.3 SSE 39 46 21 25 1011.1 1011.0 0.0
26/09:30pm 17.4 11.0 13.1 76 2.4 SSE 39 46 21 25 1010.8 1010.7 0.0
26/09:00pm 17.4 10.8 12.7 74 2.6 SSE 39 48 21 26 1010.3 1010.2 0.0
26/08:30pm 17.6 11.8 12.7 73 2.7 SSE 35 41 19 22 1010.2 1010.1 0.0
26/08:00pm 17.7 11.7 12.2 70 3.0 SSE 35 43 19 23 1009.8 1009.7 0.0
26/07:30pm 18.5 13.0 12.5 68 3.4 S 33 39 18 21 1009.5 1009.4 0.0
26/07:00pm 18.9 13.4 12.4 66 3.6 S 33 41 18 22 1009.0 1008.9 0.0
26/06:30pm 19.1 13.6 11.7 62 4.1 S 32 41 17 22 1008.7 1008.6 0.0
26/06:00pm 19.7 14.5 12.7 64 3.9 S 32 39 17 21 1008.4 1008.3 0.0
26/05:30pm 19.8 14.3 10.5 55 5.0 S 30 33 16 18 1008.4 1008.3 0.0
26/05:00pm 19.5 14.0 12.0 62 4.2 S 32 39 17 21 1008.5 1008.4 0.0
26/04:30pm 20.1 14.5 11.6 58 4.7 SSE 32 37 17 20 1008.5 1008.4 0.0
26/04:00pm 20.3 14.7 11.5 57 4.9 S 32 39 17 21 1008.3 1008.2 0.0
26/03:30pm 20.5 15.6 11.2 55 5.1 S 28 33 15 18 1008.5 1008.4 0.0
26/03:00pm 20.7 16.2 11.3 55 5.2 S 26 33 14 18 1008.3 1008.2 0.0
26/02:30pm 20.3 15.7 11.0 55 5.1 S 26 33 14 18 1008.3 1008.2 0.0
26/02:00pm 19.7 15.4 12.0 61 4.3 S 26 32 14 17 1008.3 1008.2 0.0
26/01:30pm 19.9 14.5 12.2 61 4.3 S 32 39 17 21 1008.1 1008.0 0.0
26/01:00pm 20.9 16.0 12.6 59 4.7 S 30 35 16 19 1008.1 1008.0 0.0
26/12:30pm 19.9 14.4 11.9 60 4.5 S 32 37 17 20 1007.9 1007.8 0.0
26/12:00pm 19.0 13.3 11.8 63 4.0 S 33 39 18 21 1007.8 1007.7 0.0
26/11:30am 19.7 14.6 13.6 68 3.5 S 33 39 18 21 1007.4 1007.3 0.0
26/11:00am 18.5 13.1 12.3 67 3.4 SSW 32 35 17 19 1007.4 1007.3 0.0
26/10:30am 19.3 14.3 13.3 68 3.4 S 32 39 17 21 1007.3 1007.2 0.0
26/10:00am 18.6 13.4 12.8 69 3.3 S 32 37 17 20 1007.1 1007.0 0.0
26/09:30am 18.1 12.9 13.4 74 2.7 S 33 39 18 21 1006.8 1006.7 0.0
26/09:00am 18.0 12.8 13.5 75 2.6 S 33 39 18 21 1006.4 1006.3 8.2
26/08:30am 18.2 13.6 14.5 79 2.1 S 32 39 17 21 1005.7 1005.6 8.2
26/08:00am 18.3 14.4 14.4 78 2.2 S 28 35 15 19 1005.6 1005.5 8.2
26/07:30am 18.2 13.6 14.5 79 2.1 S 32 37 17 20 1005.3 1005.2 8.2
26/07:00am 18.0 13.4 14.7 81 1.9 S 32 37 17 20 1004.6 1004.5 8.2
26/06:30am 17.9 13.2 14.4 80 2.0 SSW 32 35 17 19 1004.3 1004.2 8.2
26/06:00am 17.9 13.3 14.6 81 1.9 SSW 32 39 17 21 1003.9 1003.8 8.2
26/05:30am 17.9 13.3 14.6 81 1.9 SSW 32 37 17 20 1003.6 1003.5 8.2
26/05:00am 17.8 13.5 14.5 81 1.9 S 30 35 16 19 1003.1 1003.0 8.2
26/04:30am 17.6 13.1 14.9 84 1.6 SSW 32 35 17 19 1002.9 1002.8 8.2
26/04:00am 17.9 13.7 15.7 87 1.3 SSW 32 39 17 21 1002.6 1002.5 8.2
26/03:30am 17.6 12.9 15.8 89 1.1 S 35 41 19 22 1002.5 1002.4 8.2
26/03:00am 17.7 13.2 16.4 92 0.8 SSW 35 41 19 22 1002.4 1002.3 8.2
26/02:30am 18.4 13.8 16.2 87 1.3 SSW 35 41 19 22 1002.6 1002.5 8.0
26/02:00am 18.6 14.9 17.4 93 0.7 S 33 39 18 21 1002.6 1002.5 8.0
26/01:30am 18.5 14.8 17.5 94 0.6 SSW 33 41 18 22 1002.6 1002.5 7.8
26/01:22am 18.7 16.0 17.5 93 0.7 SW 28 41 15 22 1002.5 1002.4 7.8
26/01:00am 19.7 19.8 18.4 92 0.8 SW 15 20 8 11 1002.3 1002.2 7.2
26/12:30am 19.9 20.6 17.9 88 1.2 WSW 11 17 6 9 1002.3 1002.2 7.2
26/12:00am 20.0 20.2 17.6 86 1.5 SW 13 15 7 8 1002.3 1002.2 7.2
 
Date/Time
CDT
Temp
°C
App
Temp
°C
Dew
Point
°C
Rel
Hum
%
Delta-T
°C
Wind Press
QNH
hPa
Press
MSL
hPa
Rain since
9am
mm
Dir  Spd
km/h
Gust
km/h
Spd
kts
Gust
kts
25/11:30pm 20.0 20.9 17.6 86 1.5 SSW 9 11 5 6 1002.4 1002.3 7.2
25/11:00pm 19.8 20.6 17.4 86 1.5 SSW 9 11 5 6 1002.3 1002.2 7.2
25/10:30pm 19.7 19.8 17.5 87 1.4 SW 13 15 7 8 1002.0 1001.9 7.2
25/10:00pm 19.6 18.9 17.4 87 1.3 SW 17 22 9 12 1001.8 1001.7 7.2
25/09:30pm 19.7 18.2 17.7 88 1.2 SSW 22 26 12 14 1001.1 1001.0 7.2
25/09:00pm 19.7 18.2 17.8 89 1.2 SSW 22 26 12 14 1000.5 1000.4 7.2
25/08:30pm 20.0 17.4 17.8 87 1.4 S 28 33 15 18 999.8 999.7 7.2
25/08:00pm 20.0 17.5 18.0 88 1.2 S 28 32 15 17 999.5 999.4 7.2
25/07:30pm 19.7 17.3 18.2 91 0.9 S 28 35 15 19 999.7 999.6 7.2
25/07:00pm 19.8 17.6 18.8 94 0.6 S 28 32 15 17 999.6 999.5 7.2
25/06:30pm 19.7 16.7 18.7 94 0.6 S 32 35 17 19 999.3 999.2 7.2
25/06:00pm 19.9 17.0 18.9 94 0.6 SSW 32 39 17 21 999.2 999.1 7.0
25/05:30pm 20.1 18.7 18.8 92 0.8 SSW 24 28 13 15 999.5 999.4 6.2
25/05:00pm 20.6 20.4 18.4 87 1.4 SSE 17 20 9 11 999.3 999.2 5.8
25/04:30pm 20.5 19.8 18.6 89 1.2 SE 20 26 11 14 999.1 999.0 5.8
25/04:00pm 19.9 18.8 18.7 93 0.7 S 22 30 12 16 999.6 999.5 4.4
25/03:30pm 20.1 17.8 17.5 85 1.6 SW 26 32 14 17 1000.1 1000.0 2.2
25/03:00pm 20.3 18.5 17.9 86 1.5 SW 24 30 13 16 999.8 999.7 1.8
25/02:30pm 20.6 18.6 18.2 86 1.5 SW 26 32 14 17 1000.2 1000.1 1.0
25/02:00pm 21.2 17.8 17.8 81 2.1 SW 32 37 17 20 1000.0 999.9 0.0
25/01:30pm 22.3 20.5 17.0 72 3.3 SW 22 32 12 17 1000.1 1000.0 0.0
25/01:00pm 22.3 19.5 17.2 73 3.1 SW 28 33 15 18 1000.1 1000.0 0.0
25/12:30pm 24.2 22.6 15.9 59 5.1 SW 19 24 10 13 1000.2 1000.1 0.0
25/12:00pm 24.7 24.1 15.6 57 5.5 SSW 13 17 7 9 1000.0 999.9 0.0
25/11:30am 25.0 24.3 14.2 51 6.4 S 11 19 6 10 999.9 999.8 0.0
25/11:00am 24.4 24.4 15.1 56 5.6 S 9 15 5 8 1000.1 1000.0 0.0
25/10:30am 23.6 23.0 15.6 61 4.8 S 13 15 7 8 1000.0 999.9 0.0
25/10:00am 23.9 23.2 16.4 63 4.6 SW 15 20 8 11 1000.4 1000.3 0.0
25/09:30am 23.1 22.5 16.6 67 4.0 S 15 17 8 9 1000.6 1000.5 0.0
25/09:00am 23.0 22.2 16.1 65 4.2 SSE 15 17 8 9 1000.8 1000.7 0.2
25/08:30am 23.3 22.7 15.6 62 4.7 SE 13 17 7 9 1001.3 1001.2 0.2
25/08:00am 22.7 21.1 15.0 61 4.6 WSW 17 19 9 10 1001.9 1001.8 0.2
25/07:30am 24.2 21.6 13.7 52 6.2 WSW 20 32 11 17 1002.1 1002.0 0.0
25/07:00am 25.0 22.0 11.9 44 7.5 WNW 19 24 10 13 1001.8 1001.7 0.0
25/06:30am 23.8 21.8 13.9 54 5.8 WSW 17 22 9 12 1000.9 1000.8 0.0

Latest Capital City Observations: Canberra | Sydney | Melbourne | Brisbane | Adelaide | Perth | Hobart | Darwin

Other formats

Comma delimited format used in spreadsheet applications
http://www.bom.gov.au/fwo/IDS60901/IDS60901.94677.axf

JavaScript Object Notation format (JSON) in row-major order
http://www.bom.gov.au/fwo/IDS60901/IDS60901.94677.json

Data quality

Most of these data are generated automatically and are frequently updated. Quality checks on data are not normally performed. It is possible for incorrect values to appear. Refer to information at About Latest Weather Observations and please check the disclaimer before using these data.